Time;durP1;ratioP1;P1;durP2;ratioP2;P2;SDS_P1;SDS_P2;PMS_P1;PMS_P2;Temp;Humidity;BMP_temperature;BMP_pressure;BME280_temperature;BME280_humidity;BME280_pressure;Samples;Min_cycle;Max_cycle;Signal;HPM_P1;HPM_P2
2021/08/17 00:00:30;;;;;;;;;;;14.00;99.90;;;;;;5075453;28;20227;-81
2021/08/17 00:02:55;;;;;;;;;;;14.00;99.90;;;;;;5071058;28;20349;-81
2021/08/17 00:05:21;;;;;;;;;;;14.00;99.90;;;;;;5089684;28;20007;-81
2021/08/17 00:07:47;;;;;;;;;;;14.00;99.90;;;;;;5079385;28;19917;-81
2021/08/17 00:10:13;;;;;;;;;;;14.00;99.90;;;;;;5075330;28;19912;-80
2021/08/17 00:12:38;;;;;;;;;;;14.00;99.90;;;;;;5074782;28;20218;-82
2021/08/17 00:15:05;;;;;;;;;;;14.00;99.90;;;;;;5074927;28;20406;-81
2021/08/17 00:17:30;;;;;;;;;;;14.00;99.90;;;;;;5076058;28;20007;-81
2021/08/17 00:19:56;;;;;;;;;;;14.00;99.90;;;;;;5080450;28;19952;-81
2021/08/17 00:22:24;;;;;;;;;;;14.00;99.90;;;;;;5079481;28;19916;-81
2021/08/17 00:24:50;;;;;;;;;;;14.00;99.90;;;;;;5069103;28;19913;-81
2021/08/17 00:27:16;;;;;;;;;;;14.00;99.90;;;;;;5076139;28;19917;-82
2021/08/17 00:29:42;;;;;;;;;;;13.90;99.90;;;;;;5064715;28;19919;-82
2021/08/17 00:32:07;;;;;;;;;;;13.80;99.90;;;;;;5070562;28;19916;-83
2021/08/17 00:34:33;;;;;;;;;;;13.80;99.90;;;;;;5077380;28;19928;-82
2021/08/17 00:36:59;;;;;;;;;;;13.70;99.90;;;;;;5073466;28;19916;-82
2021/08/17 00:39:25;;;;;;;;;;;13.70;99.90;;;;;;5068183;28;19909;-82
2021/08/17 00:41:51;;;;;;;;;;;13.70;99.90;;;;;;5073959;28;20011;-82
2021/08/17 00:44:23;;;;;;;;;;;13.60;99.90;;;;;;5074048;28;20010;-82
2021/08/17 00:46:49;;;;;;;;;;;13.60;99.90;;;;;;5069401;28;20311;-82
2021/08/17 00:49:14;;;;;;;;;;;13.50;99.90;;;;;;5075784;28;19962;-81
2021/08/17 00:51:40;;;;;;;;;;;13.50;99.90;;;;;;5073188;28;20406;-81
2021/08/17 00:54:06;;;;;;;;;;;13.50;99.90;;;;;;5082918;28;19917;-82
2021/08/17 00:56:32;;;;;;;;;;;13.40;99.90;;;;;;5080891;28;19916;-81
2021/08/17 00:58:57;;;;;;;;;;;13.40;99.90;;;;;;5064146;28;19909;-81
2021/08/17 01:01:23;;;;;;;;;;;13.40;99.90;;;;;;5059200;28;19909;-82
2021/08/17 01:03:49;;;;;;;;;;;13.30;99.90;;;;;;5080989;28;20300;-82
2021/08/17 01:06:14;;;;;;;;;;;13.30;99.90;;;;;;5069565;28;19988;-81
2021/08/17 01:08:40;;;;;;;;;;;13.20;99.90;;;;;;5078030;28;20047;-82
2021/08/17 01:11:05;;;;;;;;;;;13.20;99.90;;;;;;5072678;28;19920;-82
2021/08/17 01:13:31;;;;;;;;;;;13.20;99.90;;;;;;5077607;28;19920;-81
2021/08/17 01:15:57;;;;;;;;;;;13.20;99.90;;;;;;5085535;28;19912;-81
2021/08/17 01:18:23;;;;;;;;;;;13.20;99.90;;;;;;5079186;28;19923;-82
2021/08/17 01:20:50;;;;;;;;;;;13.20;99.90;;;;;;5082984;28;20303;-81
2021/08/17 01:23:19;;;;;;;;;;;13.10;99.90;;;;;;5075330;28;19962;-81
2021/08/17 01:25:45;;;;;;;;;;;13.10;99.90;;;;;;5078411;28;19955;-82
2021/08/17 01:28:11;;;;;;;;;;;13.10;99.90;;;;;;5085629;28;19950;-81
2021/08/17 01:30:36;;;;;;;;;;;13.10;99.90;;;;;;5082261;28;20318;-82
2021/08/17 01:33:02;;;;;;;;;;;13.10;99.90;;;;;;5080980;28;19931;-81
2021/08/17 01:35:28;;;;;;;;;;;13.10;99.90;;;;;;5086415;28;19912;-82
2021/08/17 01:37:54;;;;;;;;;;;13.10;99.90;;;;;;5081041;28;19908;-82
2021/08/17 01:40:19;;;;;;;;;;;13.10;99.90;;;;;;5079037;28;19932;-81
2021/08/17 01:42:45;;;;;;;;;;;13.20;99.90;;;;;;5078708;28;19924;-81
2021/08/17 01:45:13;;;;;;;;;;;13.10;99.90;;;;;;5079531;28;19912;-77
2021/08/17 01:47:38;;;;;;;;;;;13.10;99.90;;;;;;5075002;28;19912;-82
2021/08/17 01:50:04;;;;;;;;;;;13.10;99.90;;;;;;5060671;28;20018;-83
2021/08/17 01:52:30;;;;;;;;;;;13.10;99.90;;;;;;5077495;28;19923;-82
2021/08/17 01:54:55;;;;;;;;;;;13.10;99.90;;;;;;5081757;28;19916;-83
2021/08/17 01:57:21;;;;;;;;;;;13.10;99.90;;;;;;5074291;28;19932;-82
2021/08/17 01:59:47;;;;;;;;;;;13.20;99.90;;;;;;5071154;28;20231;-83
2021/08/17 02:02:13;;;;;;;;;;;13.10;99.90;;;;;;5076428;28;19920;-83
2021/08/17 02:04:38;;;;;;;;;;;13.10;99.90;;;;;;5073635;28;19909;-83
2021/08/17 02:07:04;;;;;;;;;;;13.20;99.90;;;;;;5075406;28;19909;-82
2021/08/17 02:09:30;;;;;;;;;;;13.20;99.90;;;;;;5070433;28;20215;-82
2021/08/17 02:11:55;;;;;;;;;;;13.20;99.90;;;;;;5080125;28;19920;-83
2021/08/17 02:14:21;;;;;;;;;;;13.20;99.90;;;;;;5081682;28;19927;-81
2021/08/17 02:16:47;;;;;;;;;;;13.20;99.90;;;;;;5080140;28;19920;-82
2021/08/17 02:19:13;;;;;;;;;;;13.20;99.90;;;;;;5077603;28;19912;-79
2021/08/17 02:21:38;;;;;;;;;;;13.20;99.90;;;;;;5071161;28;19913;-82
2021/08/17 02:24:04;;;;;;;;;;;13.20;99.90;;;;;;5086975;28;20261;-80
2021/08/17 02:26:30;;;;;;;;;;;13.30;99.90;;;;;;5081334;28;19913;-83
2021/08/17 02:28:55;;;;;;;;;;;13.30;99.90;;;;;;5071580;28;19917;-83
2021/08/17 02:31:21;;;;;;;;;;;13.30;99.90;;;;;;5074429;28;19986;-81
2021/08/17 02:33:46;;;;;;;;;;;13.40;99.90;;;;;;5080524;28;19925;-82
2021/08/17 02:36:12;;;;;;;;;;;13.50;99.90;;;;;;5082467;28;19918;-83
2021/08/17 02:38:37;;;;;;;;;;;13.60;99.90;;;;;;5077255;28;19916;-83
2021/08/17 02:41:03;;;;;;;;;;;13.70;99.90;;;;;;5077812;28;19955;-82
2021/08/17 02:43:28;;;;;;;;;;;13.80;99.90;;;;;;5077062;28;20265;-84
2021/08/17 02:45:55;;;;;;;;;;;13.80;99.90;;;;;;5090586;28;19954;-82
2021/08/17 02:48:21;;;;;;;;;;;13.90;99.90;;;;;;5063290;28;19927;-78
2021/08/17 02:50:47;;;;;;;;;;;14.00;99.90;;;;;;5077637;28;19991;-83
2021/08/17 02:53:14;;;;;;;;;;;14.00;99.90;;;;;;5087794;28;19954;-83
2021/08/17 02:55:39;;;;;;;;;;;14.10;99.90;;;;;;5082183;28;19913;-83
2021/08/17 02:58:09;;;;;;;;;;;14.20;99.90;;;;;;5079830;28;20219;-84
2021/08/17 03:00:42;;;;;;;;;;;14.20;99.90;;;;;;5077027;28;19912;-83
2021/08/17 03:03:07;;;;;;;;;;;14.30;99.90;;;;;;5077842;28;19916;-83
2021/08/17 03:05:33;;;;;;;;;;;14.30;99.90;;;;;;5077941;28;20051;-82
2021/08/17 03:08:05;;;;;;;;;;;14.30;99.90;;;;;;5075320;28;19920;-83
2021/08/17 03:10:35;;;;;;;;;;;14.30;99.90;;;;;;5075171;28;19917;-83
2021/08/17 03:13:01;;;;;;;;;;;14.30;99.90;;;;;;5094582;28;19912;-82
2021/08/17 03:15:32;;;;;;;;;;;14.30;99.90;;;;;;5082923;28;19966;-82
2021/08/17 03:17:59;;;;;;;;;;;14.30;99.90;;;;;;5072708;28;20377;-82
2021/08/17 03:20:24;;;;;;;;;;;14.30;99.90;;;;;;5084092;28;19918;-83
2021/08/17 03:22:50;;;;;;;;;;;14.30;99.90;;;;;;5088791;28;20380;-82
2021/08/17 03:25:15;;;;;;;;;;;14.20;99.90;;;;;;5076866;28;19913;-82
2021/08/17 03:27:41;;;;;;;;;;;14.20;99.90;;;;;;5074371;28;20285;-82
2021/08/17 03:30:08;;;;;;;;;;;14.20;99.90;;;;;;5077531;28;19922;-83
2021/08/17 03:32:34;;;;;;;;;;;14.20;99.90;;;;;;5079362;28;19928;-82
2021/08/17 03:34:59;;;;;;;;;;;14.20;99.90;;;;;;5074570;28;19957;-83
2021/08/17 03:37:25;;;;;;;;;;;14.20;99.90;;;;;;5071547;28;19962;-83
2021/08/17 03:39:51;;;;;;;;;;;14.20;99.90;;;;;;5078728;28;19916;-83
2021/08/17 03:42:16;;;;;;;;;;;14.20;99.90;;;;;;5079833;28;20330;-83
2021/08/17 03:44:42;;;;;;;;;;;14.20;99.90;;;;;;5068288;28;19915;-83
2021/08/17 03:47:08;;;;;;;;;;;14.20;99.90;;;;;;5065529;28;20291;-83
2021/08/17 03:49:33;;;;;;;;;;;14.20;99.90;;;;;;5072196;28;19912;-81
2021/08/17 03:51:59;;;;;;;;;;;14.20;99.90;;;;;;5076310;28;20313;-82
2021/08/17 03:54:24;;;;;;;;;;;14.10;99.90;;;;;;5087423;28;19920;-82
2021/08/17 03:56:50;;;;;;;;;;;14.10;99.90;;;;;;5078760;28;19917;-81
2021/08/17 03:59:15;;;;;;;;;;;14.10;99.90;;;;;;5072274;28;20307;-80
2021/08/17 04:01:41;;;;;;;;;;;14.20;99.90;;;;;;5082851;28;20002;-83
2021/08/17 04:04:06;;;;;;;;;;;14.20;99.90;;;;;;5088164;28;19912;-83
2021/08/17 04:06:32;;;;;;;;;;;14.20;99.90;;;;;;5072699;28;19991;-82
2021/08/17 04:08:58;;;;;;;;;;;14.20;99.90;;;;;;5077852;28;19912;-82
2021/08/17 04:11:23;;;;;;;;;;;14.20;99.90;;;;;;5068704;28;19924;-83
2021/08/17 04:13:49;;;;;;;;;;;14.20;99.90;;;;;;5082594;28;20508;-83
2021/08/17 04:16:14;;;;;;;;;;;14.20;99.90;;;;;;5075406;28;19966;-81
2021/08/17 04:18:40;;;;;;;;;;;14.20;99.90;;;;;;5059273;28;19916;-83
2021/08/17 04:21:05;;;;;;;;;;;14.20;99.90;;;;;;5067682;28;19913;-81
2021/08/17 04:23:31;;;;;;;;;;;14.20;99.90;;;;;;5085321;28;19920;-83
2021/08/17 04:25:57;;;;;;;;;;;14.20;99.90;;;;;;5082532;28;19921;-81
2021/08/17 04:28:23;;;;;;;;;;;14.20;99.90;;;;;;5062679;28;19912;-82
2021/08/17 04:30:48;;;;;;;;;;;14.20;99.90;;;;;;5069454;28;19973;-83
2021/08/17 04:33:14;;;;;;;;;;;14.10;99.90;;;;;;5062981;28;20007;-83
2021/08/17 04:35:40;;;;;;;;;;;14.10;99.90;;;;;;5066432;28;20208;-82
2021/08/17 04:38:05;;;;;;;;;;;14.10;99.90;;;;;;5070116;28;19909;-82
2021/08/17 04:40:31;;;;;;;;;;;14.10;99.90;;;;;;5065301;28;20328;-81
2021/08/17 04:42:57;;;;;;;;;;;14.10;99.90;;;;;;5068346;28;19923;-82
2021/08/17 04:45:22;;;;;;;;;;;14.10;99.90;;;;;;5068429;28;19944;-83
2021/08/17 04:47:49;;;;;;;;;;;14.10;99.90;;;;;;5067200;28;19919;-82
2021/08/17 04:50:15;;;;;;;;;;;14.10;99.90;;;;;;5066463;28;20141;-83
2021/08/17 04:52:40;;;;;;;;;;;14.10;99.90;;;;;;5076814;28;19954;-83
2021/08/17 04:55:06;;;;;;;;;;;14.10;99.90;;;;;;5069579;28;20231;-82
2021/08/17 04:57:44;;;;;;;;;;;14.10;99.90;;;;;;5070634;28;19954;-83
2021/08/17 05:00:10;;;;;;;;;;;14.10;99.90;;;;;;5073135;28;19916;-83
2021/08/17 05:02:36;;;;;;;;;;;14.10;99.90;;;;;;5070221;28;20300;-83
2021/08/17 05:05:01;;;;;;;;;;;14.10;99.90;;;;;;5071171;28;19923;-83
2021/08/17 05:07:27;;;;;;;;;;;14.10;99.90;;;;;;5073547;28;19995;-83
2021/08/17 05:09:52;;;;;;;;;;;14.10;99.90;;;;;;5070575;28;19912;-82
2021/08/17 05:12:18;;;;;;;;;;;14.20;99.90;;;;;;5069230;28;19913;-83
2021/08/17 05:14:43;;;;;;;;;;;14.20;99.90;;;;;;5075197;28;19916;-82
2021/08/17 05:17:09;;;;;;;;;;;14.20;99.90;;;;;;5073051;28;20321;-83
2021/08/17 05:19:35;;;;;;;;;;;14.30;99.90;;;;;;5069609;28;20300;-82
2021/08/17 05:22:00;;;;;;;;;;;14.30;99.90;;;;;;5072168;28;19959;-82
2021/08/17 05:24:26;;;;;;;;;;;14.40;99.90;;;;;;5071138;28;19913;-83
2021/08/17 05:26:51;;;;;;;;;;;14.40;99.90;;;;;;5067790;28;20011;-82
2021/08/17 05:29:17;;;;;;;;;;;14.40;99.90;;;;;;5074976;28;19917;-82
2021/08/17 05:31:42;;;;;;;;;;;14.50;99.90;;;;;;5072347;28;19999;-82
2021/08/17 05:34:08;;;;;;;;;;;14.50;99.90;;;;;;5074705;28;19929;-83
2021/08/17 05:36:33;;;;;;;;;;;14.50;99.90;;;;;;5071885;28;19920;-81
2021/08/17 05:38:59;;;;;;;;;;;14.50;99.90;;;;;;5071344;28;19920;-82
2021/08/17 05:41:24;;;;;;;;;;;14.60;99.90;;;;;;5070812;28;19959;-80
2021/08/17 05:43:50;;;;;;;;;;;14.60;99.90;;;;;;5070647;28;19919;-82
2021/08/17 05:46:16;;;;;;;;;;;14.70;99.90;;;;;;5071264;28;19923;-82
2021/08/17 05:48:41;;;;;;;;;;;14.60;99.90;;;;;;5071965;28;19920;-81
2021/08/17 05:51:07;;;;;;;;;;;14.70;99.90;;;;;;5071891;28;19912;-81
2021/08/17 05:53:33;;;;;;;;;;;14.80;99.90;;;;;;5073646;28;19913;-83
2021/08/17 05:55:58;;;;;;;;;;;14.80;99.90;;;;;;5072313;28;19912;-82
2021/08/17 05:58:24;;;;;;;;;;;14.90;99.90;;;;;;5069919;28;20311;-82
2021/08/17 06:00:49;;;;;;;;;;;15.00;99.90;;;;;;5071122;28;20299;-82
2021/08/17 06:03:15;;;;;;;;;;;15.10;99.90;;;;;;5073440;28;19961;-82
2021/08/17 06:05:40;;;;;;;;;;;15.20;99.90;;;;;;5072343;28;19920;-82
2021/08/17 06:08:06;;;;;;;;;;;15.30;99.90;;;;;;5071631;28;19916;-83
2021/08/17 06:10:31;;;;;;;;;;;15.30;99.90;;;;;;5072215;28;19917;-82
2021/08/17 06:12:57;;;;;;;;;;;15.30;99.90;;;;;;5067135;28;20004;-84
2021/08/17 06:15:23;;;;;;;;;;;15.30;99.90;;;;;;5071650;28;19967;-82
2021/08/17 06:17:48;;;;;;;;;;;15.40;99.90;;;;;;5070590;28;20642;-82
2021/08/17 06:20:14;;;;;;;;;;;15.40;99.90;;;;;;5073039;28;19912;-81
2021/08/17 06:22:40;;;;;;;;;;;15.50;99.90;;;;;;5072082;28;19936;-80
2021/08/17 06:25:06;;;;;;;;;;;15.50;99.90;;;;;;5071620;28;19917;-82
2021/08/17 06:27:34;;;;;;;;;;;15.60;99.90;;;;;;5069884;28;19916;-79
2021/08/17 06:29:59;;;;;;;;;;;15.60;99.90;;;;;;5075276;28;19917;-81
2021/08/17 06:32:25;;;;;;;;;;;15.70;99.90;;;;;;5071605;28;19920;-82
2021/08/17 06:34:50;;;;;;;;;;;15.70;99.90;;;;;;5068343;28;19916;-82
2021/08/17 06:37:16;;;;;;;;;;;15.70;99.90;;;;;;5072569;28;20289;-82
2021/08/17 06:39:41;;;;;;;;;;;15.80;99.90;;;;;;5070874;28;19916;-83
2021/08/17 06:42:07;;;;;;;;;;;15.80;99.90;;;;;;5069855;28;19913;-82
2021/08/17 06:44:33;;;;;;;;;;;15.80;99.90;;;;;;5072004;28;19912;-82
2021/08/17 06:46:58;;;;;;;;;;;15.80;99.90;;;;;;5072023;28;19912;-82
2021/08/17 06:49:24;;;;;;;;;;;15.80;99.90;;;;;;5071536;28;19995;-83
2021/08/17 06:51:49;;;;;;;;;;;15.90;99.90;;;;;;5070429;28;20015;-83
2021/08/17 06:54:15;;;;;;;;;;;16.00;99.90;;;;;;5078807;28;19916;-82
2021/08/17 06:56:41;;;;;;;;;;;16.00;99.90;;;;;;5076679;28;20336;-83
2021/08/17 06:59:06;;;;;;;;;;;16.10;99.90;;;;;;5070222;28;19923;-82
2021/08/17 07:01:32;;;;;;;;;;;16.20;99.90;;;;;;5065499;28;19916;-83
2021/08/17 07:03:58;;;;;;;;;;;16.20;99.90;;;;;;5072879;28;19958;-82
2021/08/17 07:06:23;;;;;;;;;;;16.20;99.90;;;;;;5082365;28;20008;-83
2021/08/17 07:08:49;;;;;;;;;;;16.30;99.90;;;;;;5077478;28;19970;-82
2021/08/17 07:11:15;;;;;;;;;;;16.30;99.90;;;;;;5089378;28;19912;-82
2021/08/17 07:13:41;;;;;;;;;;;16.30;99.90;;;;;;5073817;28;19912;-83
2021/08/17 07:16:06;;;;;;;;;;;16.40;99.90;;;;;;5061910;28;19917;-82
2021/08/17 07:18:34;;;;;;;;;;;16.50;99.90;;;;;;5082690;28;19912;-82
2021/08/17 07:21:00;;;;;;;;;;;16.70;99.90;;;;;;5074608;28;19915;-84
2021/08/17 07:23:26;;;;;;;;;;;16.80;99.90;;;;;;5084359;28;19916;-82
2021/08/17 07:25:51;;;;;;;;;;;16.80;99.90;;;;;;5075970;28;19973;-80
2021/08/17 07:28:18;;;;;;;;;;;16.80;99.90;;;;;;5073866;28;19912;-82
2021/08/17 07:30:44;;;;;;;;;;;16.70;99.90;;;;;;5075211;28;19912;-84
2021/08/17 07:33:10;;;;;;;;;;;16.70;99.90;;;;;;5073449;28;19925;-83
2021/08/17 07:35:35;;;;;;;;;;;16.70;99.90;;;;;;5075953;28;19966;-81
2021/08/17 07:38:01;;;;;;;;;;;16.70;99.90;;;;;;5070322;28;19960;-83
2021/08/17 07:40:27;;;;;;;;;;;16.70;99.90;;;;;;5076439;28;19962;-83
2021/08/17 07:42:52;;;;;;;;;;;16.70;99.90;;;;;;5072661;28;19917;-81
2021/08/17 07:45:19;;;;;;;;;;;16.70;99.90;;;;;;5075154;28;19912;-83
2021/08/17 07:47:44;;;;;;;;;;;16.70;99.90;;;;;;5074695;28;19916;-83
2021/08/17 07:50:11;;;;;;;;;;;16.70;99.90;;;;;;5076346;28;19918;-81
2021/08/17 07:52:37;;;;;;;;;;;16.80;99.90;;;;;;5074941;28;19995;-82
2021/08/17 07:55:04;;;;;;;;;;;16.80;99.90;;;;;;5074943;28;20020;-81
2021/08/17 07:57:29;;;;;;;;;;;16.90;99.90;;;;;;5072924;28;19999;-79
2021/08/17 07:59:55;;;;;;;;;;;16.90;99.90;;;;;;5073056;28;20324;-81
2021/08/17 08:02:21;;;;;;;;;;;16.90;99.90;;;;;;5072646;28;19917;-79
2021/08/17 08:04:46;;;;;;;;;;;16.90;99.90;;;;;;5071547;28;20333;-81
2021/08/17 08:07:12;;;;;;;;;;;16.90;99.90;;;;;;5073607;28;19920;-78
2021/08/17 08:09:37;;;;;;;;;;;16.90;99.90;;;;;;5073174;28;19913;-80
2021/08/17 08:12:03;;;;;;;;;;;16.90;99.90;;;;;;5072955;28;19913;-80
2021/08/17 08:14:29;;;;;;;;;;;16.90;99.90;;;;;;5075960;28;19917;-80
2021/08/17 08:16:58;;;;;;;;;;;17.00;99.90;;;;;;5073358;28;20254;-82
2021/08/17 08:19:23;;;;;;;;;;;17.00;99.90;;;;;;5058095;28;19927;-79
2021/08/17 08:21:49;;;;;;;;;;;17.00;99.90;;;;;;5074879;28;20216;-78
2021/08/17 08:24:14;;;;;;;;;;;17.00;99.90;;;;;;5074312;28;20569;-80
2021/08/17 08:26:40;;;;;;;;;;;17.10;99.90;;;;;;5071682;28;19917;-77
2021/08/17 08:29:06;;;;;;;;;;;17.20;99.90;;;;;;5075095;28;19916;-81
2021/08/17 08:31:31;;;;;;;;;;;17.20;99.90;;;;;;5068066;28;19920;-80
2021/08/17 08:33:57;;;;;;;;;;;17.20;99.90;;;;;;5073061;28;19946;-77
2021/08/17 08:36:22;;;;;;;;;;;17.20;99.90;;;;;;5069654;28;19921;-78
2021/08/17 08:38:48;;;;;;;;;;;17.20;99.90;;;;;;5074088;28;19916;-79
2021/08/17 08:41:16;;;;;;;;;;;17.20;99.90;;;;;;5084475;28;20227;-77
2021/08/17 08:43:42;;;;;;;;;;;17.20;99.90;;;;;;5071877;28;19963;-78
2021/08/17 08:46:11;;;;;;;;;;;17.30;99.90;;;;;;5070734;28;19912;-78
2021/08/17 08:48:37;;;;;;;;;;;17.40;99.90;;;;;;5072228;28;19924;-77
2021/08/17 08:51:03;;;;;;;;;;;17.40;99.90;;;;;;5071930;28;19920;-78
2021/08/17 08:53:29;;;;;;;;;;;17.40;99.90;;;;;;5089020;28;19917;-79
2021/08/17 08:55:54;;;;;;;;;;;17.40;99.90;;;;;;5072361;28;20261;-76
2021/08/17 08:58:20;;;;;;;;;;;17.40;99.90;;;;;;5071733;28;19912;-77
2021/08/17 09:00:46;;;;;;;;;;;17.30;99.90;;;;;;5071639;28;20005;-77
2021/08/17 09:03:11;;;;;;;;;;;17.30;99.90;;;;;;5070387;28;19947;-75
2021/08/17 09:05:53;;;;;;;;;;;17.20;99.90;;;;;;5074394;28;19921;-76
2021/08/17 09:08:28;;;;;;;;;;;17.20;99.90;;;;;;5070040;28;20097;-78
2021/08/17 09:10:59;;;;;;;;;;;17.10;99.90;;;;;;5072049;28;19912;-76
2021/08/17 09:13:25;;;;;;;;;;;17.10;99.90;;;;;;5070684;28;19917;-77
2021/08/17 09:15:50;;;;;;;;;;;17.10;99.90;;;;;;5072685;28;20023;-77
2021/08/17 09:18:16;;;;;;;;;;;17.10;99.90;;;;;;5070883;28;19920;-79
2021/08/17 09:20:43;;;;;;;;;;;17.10;99.90;;;;;;5073889;28;20378;-76
2021/08/17 09:23:21;;;;;;;;;;;17.00;99.90;;;;;;5071873;28;20315;-77
2021/08/17 09:25:47;;;;;;;;;;;17.00;99.90;;;;;;5071154;28;19976;-76
2021/08/17 09:28:24;;;;;;;;;;;17.00;99.90;;;;;;5073085;28;19916;-77
2021/08/17 09:30:50;;;;;;;;;;;16.90;99.90;;;;;;5073072;28;19946;-77
2021/08/17 09:33:16;;;;;;;;;;;16.90;99.90;;;;;;5072613;28;19999;-79
2021/08/17 09:35:41;;;;;;;;;;;16.90;99.90;;;;;;5072430;28;19928;-77
2021/08/17 09:38:14;;;;;;;;;;;16.90;99.90;;;;;;5071472;28;20131;-78
2021/08/17 09:40:40;;;;;;;;;;;16.80;99.90;;;;;;5076175;28;19920;-77
2021/08/17 09:43:12;;;;;;;;;;;16.80;99.90;;;;;;5073778;28;19912;-79
2021/08/17 09:45:38;;;;;;;;;;;16.90;99.90;;;;;;5069905;28;20225;-79
2021/08/17 09:48:03;;;;;;;;;;;16.90;99.90;;;;;;5070208;28;19919;-78
2021/08/17 09:50:30;;;;;;;;;;;17.00;99.90;;;;;;5072262;28;19912;-77
2021/08/17 09:53:07;;;;;;;;;;;17.10;99.90;;;;;;5071789;28;19923;-78
2021/08/17 09:55:38;;;;;;;;;;;17.10;99.90;;;;;;5071626;28;20278;-79
2021/08/17 09:58:20;;;;;;;;;;;17.10;99.90;;;;;;5070649;28;19913;-76
2021/08/17 10:00:47;;;;;;;;;;;17.10;99.90;;;;;;5071336;28;19913;-77
2021/08/17 10:03:16;;;;;;;;;;;17.20;99.90;;;;;;5073255;28;19912;-77
2021/08/17 10:05:42;;;;;;;;;;;17.20;99.90;;;;;;5072007;28;19962;-77
2021/08/17 10:08:09;;;;;;;;;;;17.20;99.90;;;;;;5071969;28;19916;-78
2021/08/17 10:10:35;;;;;;;;;;;17.10;99.90;;;;;;5068713;28;20306;-78
2021/08/17 10:13:02;;;;;;;;;;;17.10;99.90;;;;;;5072010;28;19974;-78
2021/08/17 10:15:27;;;;;;;;;;;17.00;99.90;;;;;;5073034;28;19999;-78
2021/08/17 10:17:56;;;;;;;;;;;17.00;99.90;;;;;;5072670;28;20007;-77
2021/08/17 10:20:22;;;;;;;;;;;17.00;99.90;;;;;;5072189;28;19921;-78
2021/08/17 10:22:47;;;;;;;;;;;17.00;99.90;;;;;;5071774;28;19999;-79
2021/08/17 10:25:17;;;;;;;;;;;17.00;99.90;;;;;;5072911;28;19992;-79
2021/08/17 10:27:43;;;;;;;;;;;16.90;99.90;;;;;;5072961;28;19917;-78
2021/08/17 10:30:11;;;;;;;;;;;16.90;99.90;;;;;;5074361;28;19917;-79
2021/08/17 10:32:39;;;;;;;;;;;16.90;99.90;;;;;;5070526;28;20269;-78
2021/08/17 10:35:05;;;;;;;;;;;16.90;99.90;;;;;;5088421;28;19920;-77
2021/08/17 10:37:30;;;;;;;;;;;16.90;99.90;;;;;;5074722;28;19958;-76
2021/08/17 10:39:56;;;;;;;;;;;16.90;99.90;;;;;;5068616;28;20261;-76
2021/08/17 10:42:23;;;;;;;;;;;16.80;99.90;;;;;;5063038;28;19951;-76
2021/08/17 10:44:49;;;;;;;;;;;16.80;99.90;;;;;;5070804;28;19912;-79
2021/08/17 10:47:35;;;;;;;;;;;16.70;99.90;;;;;;5075539;28;20322;-79
2021/08/17 10:50:00;;;;;;;;;;;16.70;99.90;;;;;;5061376;28;20304;-78
2021/08/17 10:52:29;;;;;;;;;;;16.70;99.90;;;;;;5078386;28;19925;-79
2021/08/17 10:55:13;;;;;;;;;;;16.70;99.90;;;;;;5074923;28;20018;-79
2021/08/17 10:58:08;;;;;;;;;;;16.60;99.90;;;;;;5075208;28;20531;-78
2021/08/17 11:00:46;;;;;;;;;;;16.60;99.90;;;;;;5070838;28;19956;-77
2021/08/17 11:03:12;;;;;;;;;;;16.60;99.90;;;;;;5075800;28;19920;-78
2021/08/17 11:05:51;;;;;;;;;;;16.60;99.90;;;;;;5069469;28;19920;-79
2021/08/17 11:08:32;;;;;;;;;;;16.50;99.90;;;;;;5075440;28;21687;-79
2021/08/17 11:11:01;;;;;;;;;;;16.50;99.90;;;;;;5072605;28;19919;-78
2021/08/17 11:13:27;;;;;;;;;;;16.50;99.90;;;;;;5072701;28;19916;-78
2021/08/17 11:16:06;;;;;;;;;;;16.40;99.90;;;;;;5075755;28;19962;-79
2021/08/17 11:18:47;;;;;;;;;;;16.40;99.90;;;;;;5074402;28;19920;-78
2021/08/17 11:21:13;;;;;;;;;;;16.30;99.90;;;;;;5074054;28;20330;-80
2021/08/17 11:23:38;;;;;;;;;;;16.30;99.90;;;;;;5074438;28;19912;-79
2021/08/17 11:26:07;;;;;;;;;;;16.30;99.90;;;;;;5077375;28;19917;-80
2021/08/17 11:28:33;;;;;;;;;;;16.30;99.90;;;;;;5074598;28;19924;-80
2021/08/17 11:30:59;;;;;;;;;;;16.20;99.90;;;;;;5074873;28;20057;-84
2021/08/17 11:33:25;;;;;;;;;;;16.20;99.90;;;;;;5074812;28;19920;-80
2021/08/17 11:35:51;;;;;;;;;;;16.20;99.90;;;;;;5073545;28;19978;-80
2021/08/17 11:38:21;;;;;;;;;;;16.10;99.90;;;;;;5074296;28;19962;-79
2021/08/17 11:40:47;;;;;;;;;;;16.00;99.90;;;;;;5072851;28;19916;-74
2021/08/17 11:43:16;;;;;;;;;;;16.00;99.90;;;;;;5074123;28;19913;-77
2021/08/17 11:45:41;;;;;;;;;;;15.90;99.90;;;;;;5076077;28;19921;-79
2021/08/17 11:48:07;;;;;;;;;;;15.90;99.90;;;;;;5075524;28;20368;-81
2021/08/17 11:50:33;;;;;;;;;;;15.80;99.90;;;;;;5074489;28;19913;-80
2021/08/17 11:52:59;;;;;;;;;;;15.90;99.90;;;;;;5075014;28;19924;-79
2021/08/17 11:55:29;;;;;;;;;;;15.90;99.90;;;;;;5075498;28;20013;-76
2021/08/17 11:57:55;;;;;;;;;;;15.90;99.90;;;;;;5072705;28;19943;-79
2021/08/17 12:00:21;;;;;;;;;;;15.90;99.90;;;;;;5076599;28;19974;-76
2021/08/17 12:02:59;;;;;;;;;;;16.00;99.90;;;;;;5074421;28;20204;-80
2021/08/17 12:05:25;;;;;;;;;;;16.10;99.90;;;;;;5073867;28;19913;-75
2021/08/17 12:07:52;;;;;;;;;;;16.10;99.90;;;;;;5074485;28;19920;-76
2021/08/17 12:10:17;;;;;;;;;;;16.10;99.90;;;;;;5075446;28;19916;-79
2021/08/17 12:13:02;;;;;;;;;;;16.10;99.90;;;;;;5076486;28;19986;-81
2021/08/17 12:15:32;;;;;;;;;;;16.20;99.90;;;;;;5075456;28;20307;-81
2021/08/17 12:18:16;;;;;;;;;;;16.20;99.90;;;;;;5073766;28;19912;-79
2021/08/17 12:20:53;;;;;;;;;;;16.30;99.90;;;;;;5072890;28;20307;-79
2021/08/17 12:23:24;;;;;;;;;;;16.30;99.90;;;;;;5072427;28;19966;-82
2021/08/17 12:25:51;;;;;;;;;;;16.30;99.90;;;;;;5073121;28;19971;-81
2021/08/17 12:28:27;;;;;;;;;;;16.20;99.90;;;;;;5073537;28;19916;-81
2021/08/17 12:31:14;;;;;;;;;;;16.20;99.90;;;;;;5070754;28;19916;-80
2021/08/17 12:33:54;;;;;;;;;;;16.30;99.90;;;;;;5069574;28;20046;-80
2021/08/17 12:36:20;;;;;;;;;;;16.30;99.90;;;;;;5087774;28;19923;-81
2021/08/17 12:38:46;;;;;;;;;;;16.30;99.90;;;;;;5074435;28;19920;-79
2021/08/17 12:41:27;;;;;;;;;;;16.30;99.90;;;;;;5072588;28;20279;-79
2021/08/17 12:43:52;;;;;;;;;;;16.30;99.90;;;;;;5074375;28;19955;-80
2021/08/17 12:46:18;;;;;;;;;;;16.30;99.90;;;;;;5071616;28;19959;-79
2021/08/17 12:48:45;;;;;;;;;;;16.20;99.90;;;;;;5073893;28;20333;-80
2021/08/17 12:51:18;;;;;;;;;;;16.20;99.90;;;;;;5073109;28;19912;-80
2021/08/17 12:53:43;;;;;;;;;;;16.10;99.90;;;;;;5071443;28;19990;-76
2021/08/17 12:56:09;;;;;;;;;;;16.00;99.90;;;;;;5070538;28;19999;-79
2021/08/17 12:58:34;;;;;;;;;;;16.00;99.90;;;;;;5071185;28;19921;-79
2021/08/17 13:01:00;;;;;;;;;;;16.10;99.90;;;;;;5070475;28;19920;-79
2021/08/17 13:03:25;;;;;;;;;;;16.10;99.90;;;;;;5068457;28;20023;-82
2021/08/17 13:05:52;;;;;;;;;;;16.20;99.90;;;;;;5066095;28;19917;-81
2021/08/17 13:08:18;;;;;;;;;;;16.10;99.90;;;;;;5066939;28;20007;-81
2021/08/17 13:10:43;;;;;;;;;;;16.20;99.90;;;;;;5057812;28;20003;-81
2021/08/17 13:13:09;;;;;;;;;;;16.20;99.90;;;;;;5079218;28;19916;-76
2021/08/17 13:15:35;;;;;;;;;;;16.20;99.90;;;;;;5083760;28;19920;-82
2021/08/17 13:18:00;;;;;;;;;;;16.20;99.90;;;;;;5076164;28;19912;-81
2021/08/17 13:20:26;;;;;;;;;;;16.20;99.90;;;;;;5078500;28;19920;-81
2021/08/17 13:22:52;;;;;;;;;;;16.20;99.90;;;;;;5067586;28;19969;-80
2021/08/17 13:25:19;;;;;;;;;;;16.20;99.90;;;;;;5069316;28;19916;-82
2021/08/17 13:27:45;;;;;;;;;;;16.20;99.90;;;;;;5061692;28;19928;-81
2021/08/17 13:30:11;;;;;;;;;;;16.20;99.90;;;;;;5066517;28;19912;-81
2021/08/17 13:32:37;;;;;;;;;;;16.30;99.90;;;;;;5077630;28;20201;-80
2021/08/17 13:35:03;;;;;;;;;;;16.30;99.90;;;;;;5067811;28;19966;-76
2021/08/17 13:37:28;;;;;;;;;;;16.40;99.90;;;;;;5073702;28;19928;-81
2021/08/17 13:39:57;;;;;;;;;;;16.50;99.90;;;;;;5065649;28;19920;-81
2021/08/17 13:42:24;;;;;;;;;;;16.50;99.90;;;;;;5058422;28;19917;-79
2021/08/17 13:44:52;;;;;;;;;;;16.50;99.90;;;;;;5060363;28;19913;-81
2021/08/17 13:47:22;;;;;;;;;;;16.50;99.90;;;;;;5066928;28;19916;-82
2021/08/17 13:49:48;;;;;;;;;;;16.40;99.90;;;;;;5059026;28;19913;-82
2021/08/17 13:52:14;;;;;;;;;;;16.40;99.90;;;;;;5078518;28;19923;-78
2021/08/17 13:54:40;;;;;;;;;;;16.30;99.90;;;;;;5077263;28;19996;-80
2021/08/17 13:57:06;;;;;;;;;;;16.30;99.90;;;;;;5071628;28;19963;-82
2021/08/17 13:59:32;;;;;;;;;;;16.20;99.90;;;;;;5061236;28;19921;-80
2021/08/17 14:01:58;;;;;;;;;;;16.20;99.90;;;;;;5073988;28;19919;-80
2021/08/17 14:04:24;;;;;;;;;;;16.20;99.90;;;;;;5075127;28;19913;-78
2021/08/17 14:06:50;;;;;;;;;;;16.20;99.90;;;;;;5071436;28;19909;-80
2021/08/17 14:09:15;;;;;;;;;;;16.10;99.90;;;;;;5074905;28;19920;-79
2021/08/17 14:11:42;;;;;;;;;;;16.10;99.90;;;;;;5073607;28;19935;-80
2021/08/17 14:14:08;;;;;;;;;;;16.10;99.90;;;;;;5075734;28;19916;-80